Latest Weather Observations for Ben Nevis

IDV60801

Issued at 5:31 pm EST Sunday 24 May 2015 (issued every 30 minutes, with the page automatically refreshed every 10 minutes)

About weather observations | Map of weather stations | Latest weather observations for VIC | Other Formats
Station Details ID: 079101 Name: BEN NEVIS Lat: -37.23 Lon: 143.20 Height: 875.0 m
Data from the previous 72 hours. | See also: Recent months at Ben Nevis
Date/Time
EST
Temp
°C
App
Temp
°C
Dew
Point
Rel
Hum
%
Delta-T
°C
Wind Press
QNH
hPa
Press
MSL
hPa
Rain
since 9 am
mm
Dir
 
Spd
km/h
Gust
km/h
Spd
kts
Gust
kts
24/05:30pm 6.0 2.6 4.2 88 0.8 N 11 22 6 12 - - 0.0
24/05:00pm 6.3 2.1 4.0 85 1.0 N 15 22 8 12 - - 0.0
24/04:30pm 7.4 3.4 4.9 84 1.2 N 15 24 8 13 - - 0.0
24/04:00pm 6.9 2.8 4.4 84 1.1 NNE 15 24 8 13 - - 0.0
24/03:30pm 7.3 3.6 4.4 82 1.3 N 13 22 7 12 - - 0.0
24/03:00pm 8.0 4.7 4.8 80 1.5 N 11 17 6 9 - - 0.0
24/02:30pm 8.5 4.8 4.3 75 1.9 N 13 20 7 11 - - 0.0
24/02:00pm 9.6 6.0 4.8 72 2.3 NNW 13 20 7 11 - - 0.0
24/01:30pm 10.1 6.5 5.1 71 2.4 N 13 22 7 12 - - 0.0
24/01:00pm 9.1 5.4 4.7 74 2.1 NNW 13 24 7 13 - - 0.0
24/12:30pm 8.6 4.2 4.8 77 1.8 N 17 26 9 14 - - 0.0
24/12:00pm 8.0 3.9 4.6 79 1.6 N 15 26 8 14 - - 0.0
24/11:30am 8.3 4.5 4.1 75 1.9 NNW 13 24 7 13 - - 0.0
24/11:00am 7.6 3.3 3.5 75 1.8 N 15 24 8 13 - - 0.0
24/10:30am 8.1 3.5 3.9 75 1.9 N 17 30 9 16 - - 0.0
24/10:00am 7.6 3.0 3.8 77 1.7 N 17 28 9 15 - - 0.0
24/09:30am 8.0 3.1 4.2 77 1.7 N 19 30 10 16 - - 0.0
24/09:00am 6.2 1.9 3.5 83 1.2 N 15 26 8 14 - - 0.0
24/08:30am 6.5 2.3 3.7 82 1.3 N 15 24 8 13 - - 0.0
24/08:00am 4.7 0.2 2.4 85 1.0 N 15 26 8 14 - - 0.0
24/07:30am 4.6 -0.3 2.0 83 1.1 N 17 26 9 14 - - 0.0
24/07:00am 4.3 -0.2 2.3 87 0.8 N 15 22 8 12 - - 0.0
24/06:30am 4.3 -0.6 2.0 85 1.0 N 17 26 9 14 - - 0.0
24/06:00am 4.6 -0.3 1.8 82 1.2 N 17 26 9 14 - - 0.0
24/05:30am 4.9 0.0 -0.3 69 2.1 N 15 20 8 11 - - 0.0
24/05:00am 6.3 0.9 -1.3 58 3.0 N 17 24 9 13 - - 0.0
24/04:30am 6.2 0.7 -2.4 54 3.3 N 17 22 9 12 - - 0.0
24/04:00am 6.6 1.1 -5.4 42 4.3 N 15 20 8 11 - - 0.0
24/03:30am 7.0 1.4 -6.3 38 4.7 NNE 15 20 8 11 - - 0.0
24/03:00am 6.9 1.5 -9.0 31 5.2 NNE 13 20 7 11 - - 0.0
24/02:30am 7.0 1.1 -9.4 30 5.4 NNE 15 22 8 12 - - 0.0
24/02:00am 7.5 1.9 -6.6 36 5.0 NNE 15 20 8 11 - - 0.0
24/01:30am 7.4 1.8 -6.7 36 5.0 NNE 15 24 8 13 - - 0.0
24/01:00am 7.8 2.2 -6.0 37 5.0 NNE 15 19 8 10 - - 0.0
24/12:30am 9.1 3.4 -8.0 29 6.0 NNE 15 20 8 11 - - 0.0
24/12:00am 9.6 3.0 -8.9 26 6.3 NNE 19 28 10 15 - - 0.0
 
Date/Time
EST
Temp
°C
App
Temp
°C
Dew
Point
Rel
Hum
%
Delta-T
°C
Wind Press
QNH
hPa
Press
MSL
hPa
Rain
since 9 am
mm
Dir
 
Spd
km/h
Gust
km/h
Spd
kts
Gust
kts
23/11:30pm 9.3 3.1 -9.2 26 6.3 NNE 17 24 9 13 - - 0.0
23/11:00pm 9.3 2.9 -11.3 22 6.7 NNE 17 22 9 12 - - 0.0
23/10:30pm 9.5 3.4 -12.3 20 6.9 NNE 15 20 8 11 - - 0.0
23/10:00pm 10.0 3.5 -12.5 19 7.1 NNE 17 22 9 12 - - 0.0
23/09:30pm 9.8 3.4 -18.2 12 7.8 NNE 15 22 8 12 - - 0.0
23/09:00pm 8.3 3.3 -7.8 31 5.6 NE 11 13 6 7 - - 0.0
23/08:30pm 8.8 3.6 -5.8 35 5.3 NE 13 17 7 9 - - 0.0
23/08:00pm 9.7 4.0 -7.0 30 6.0 NE 15 22 8 12 - - 0.0
23/07:30pm 9.8 4.1 -7.4 29 6.1 NE 15 19 8 10 - - 0.0
23/07:00pm 10.1 4.2 -10.6 22 6.9 NE 15 20 8 11 - - 0.0
23/06:30pm 9.3 3.8 -5.7 34 5.5 NE 15 17 8 9 - - 0.0
23/06:00pm 8.0 4.9 3.7 74 2.0 NNE 9 11 5 6 - - 0.0
23/05:30pm 8.3 5.0 2.5 67 2.6 NNE 9 11 5 6 - - 0.0
23/05:00pm 8.3 4.9 -0.4 54 3.6 NNE 7 11 4 6 - - 0.0
23/04:30pm 9.4 6.6 1.8 59 3.3 N 6 9 3 5 - - 0.0
23/04:00pm 10.5 6.9 -3.9 36 5.6 NE 6 11 3 6 - - 0.0
23/03:30pm 10.8 6.7 -2.9 38 5.5 NE 9 11 5 6 - - 0.0
23/03:00pm 11.7 8.1 -3.6 34 6.1 NE 6 9 3 5 - - 0.0
23/02:30pm 12.1 8.0 -6.3 27 6.9 NNE 7 9 4 5 - - 0.0
23/02:00pm 13.1 10.6 3.7 53 4.5 NE 6 9 3 5 - - 0.0
23/01:30pm 12.5 8.1 -5.5 28 6.9 ENE 9 13 5 7 - - 0.0
23/01:00pm 12.7 8.3 -5.8 27 7.1 ENE 9 15 5 8 - - 0.0
23/12:30pm 12.9 7.6 -12.3 16 8.4 NE 11 17 6 9 - - 0.0
23/12:00pm 12.7 7.7 -7.9 23 7.5 NE 11 19 6 10 - - 0.0
23/11:30am 11.6 5.6 -6.7 27 6.8 ENE 17 24 9 13 - - 0.0
23/11:00am 10.6 3.9 -8.6 25 6.7 E 20 28 11 15 - - 0.0
23/10:30am 11.1 3.3 -13.0 17 7.7 E 24 35 13 19 - - 0.0
23/10:00am 11.1 3.2 -15.4 14 8.0 E 24 30 13 16 - - 0.0
23/09:30am 11.1 4.0 -13.7 16 7.8 E 20 26 11 14 - - 0.0
23/09:00am 11.2 3.9 -17.1 12 8.2 E 20 30 11 16 - - 0.0
23/08:30am 11.3 3.9 -20.4 9 8.6 E 20 32 11 17 - - 0.0
23/08:00am 11.5 3.3 -21.6 8 8.8 E 24 35 13 19 - - 0.0
23/07:30am 11.0 2.8 -22.0 8 8.6 E 24 33 13 18 - - 0.0
23/07:00am 10.9 2.7 -20.7 9 8.5 ESE 24 33 13 18 - - 0.0
23/06:30am 10.6 2.2 -17.6 12 8.0 ESE 26 35 14 19 - - 0.0
23/06:00am 10.3 2.3 -16.0 14 7.7 ESE 24 32 13 17 - - 0.0
23/05:30am 9.7 1.4 -14.9 16 7.4 ESE 26 35 14 19 - - 0.0
23/05:00am 9.4 1.5 -14.4 17 7.2 ESE 24 33 13 18 - - 0.0
23/04:30am 9.4 1.2 -13.7 18 7.1 ESE 26 35 14 19 - - 0.0
23/04:00am 9.0 1.2 -12.1 21 6.7 ESE 24 37 13 20 - - 0.0
23/03:30am 8.8 1.9 -10.1 25 6.2 ESE 20 30 11 16 - - 0.0
23/03:00am 9.1 2.2 -10.4 24 6.4 ESE 20 33 11 18 - - 0.0
23/02:30am 9.2 2.6 -9.8 25 6.3 ESE 19 28 10 15 - - 0.0
23/02:00am 8.5 1.8 -7.6 31 5.6 ESE 20 30 11 16 - - 0.0
23/01:30am 7.2 1.6 -3.3 47 4.0 ESE 17 26 9 14 - - 0.0
23/01:00am 7.3 1.6 -0.6 57 3.2 ESE 19 26 10 14 - - 0.0
23/12:30am 5.1 0.3 0.5 72 1.9 SE 15 20 8 11 - - 0.0
23/12:00am 4.5 -0.2 1.0 78 1.4 SE 15 24 8 13 - - 0.0
 
Date/Time
EST
Temp
°C
App
Temp
°C
Dew
Point
Rel
Hum
%
Delta-T
°C
Wind Press
QNH
hPa
Press
MSL
hPa
Rain
since 9 am
mm
Dir
 
Spd
km/h
Gust
km/h
Spd
kts
Gust
kts
22/11:30pm 2.4 -1.1 1.1 91 0.5 SSE 9 11 5 6 - - 0.0
22/11:00pm 2.3 -1.1 1.7 96 0.2 S 9 15 5 8 - - 0.0
22/10:30pm 2.5 0.4 1.6 94 0.4 SE 2 6 1 3 - - 0.0
22/10:00pm 2.6 -1.6 1.9 95 0.3 S 13 17 7 9 - - 0.0
22/09:30pm 3.1 -0.2 2.4 95 0.3 S 9 15 5 8 - - 0.0
22/09:00pm 3.2 -1.2 2.5 95 0.3 S 15 20 8 11 - - 0.0
22/08:30pm 3.2 0.3 2.6 96 0.3 S 7 15 4 8 - - 0.0
22/08:00pm 3.5 -1.8 2.8 95 0.3 S 20 41 11 22 - - 0.0
22/07:30pm 3.2 -0.5 2.2 93 0.4 SSE 11 19 6 10 - - 0.0
22/07:00pm 3.3 -0.8 2.3 93 0.4 SSE 13 30 7 16 - - 0.0
22/06:30pm 3.8 -1.3 2.8 93 0.4 SSE 19 30 10 16 - - 0.0
22/06:00pm 4.1 -1.2 3.1 93 0.4 SSE 20 33 11 18 - - 0.0
22/05:30pm 4.4 -1.2 3.2 92 0.5 S 22 35 12 19 - - 0.0
22/05:00pm 4.6 -1.1 3.1 90 0.7 SSE 22 35 12 19 - - 0.0
22/04:30pm 5.2 -0.4 3.2 87 0.9 S 22 39 12 21 - - 0.0
22/04:00pm 5.8 0.8 3.6 86 1.0 S 19 33 10 18 - - 0.0
22/03:30pm 6.2 1.6 3.7 84 1.1 S 17 33 9 18 - - 0.0
22/03:00pm 6.4 1.2 3.6 82 1.3 S 20 35 11 19 - - 0.0
22/02:30pm 6.7 1.9 4.7 87 0.9 S 19 33 10 18 - - 0.0
22/02:00pm 6.9 2.6 5.1 88 0.8 S 17 28 9 15 - - 0.0
22/01:30pm 6.8 2.4 4.6 86 1.0 SSE 17 30 9 16 - - 0.0
22/01:00pm 6.8 1.6 5.4 91 0.7 SSE 22 37 12 20 - - 0.0
22/12:30pm 6.6 2.4 5.7 94 0.4 SSE 17 30 9 16 - - 0.0
22/12:00pm 6.0 -0.3 5.9 99 0.0 S 28 46 15 25 - - 0.0
22/11:43am 5.6 -0.7 5.5 99 0.0 S 28 46 15 25 - - 0.0
22/11:30am 5.8 0.3 5.7 99 0.0 SSE 24 41 13 22 - - 0.0
22/11:00am 5.8 1.0 5.7 99 0.0 S 20 32 11 17 - - 0.0
22/10:30am 6.2 2.1 6.1 99 0.0 S 17 32 9 17 - - 0.0
22/10:00am 5.6 1.4 5.5 99 0.0 SSE 17 41 9 22 - - 0.0
22/09:30am 5.6 0.0 5.5 99 0.0 SSE 24 48 13 26 - - 0.0
22/09:27am 5.5 -0.9 5.4 99 0.0 SSE 28 48 15 26 - - 0.0
22/09:00am 5.6 0.8 5.5 99 0.0 SSE 20 43 11 23 - - 1.2
22/08:30am 5.4 0.5 5.3 99 0.0 SSE 20 46 11 25 - - 1.2
22/08:00am 5.2 -0.1 5.1 99 0.0 SSE 22 43 12 23 - - 1.2
22/07:32am 5.3 -1.1 5.2 99 0.0 SSE 28 48 15 26 - - 1.2
22/07:30am 5.3 -0.7 5.2 99 0.0 SSE 26 44 14 24 - - 1.2
22/07:00am 5.6 0.0 5.5 99 0.0 SSE 24 43 13 23 - - 1.2
22/06:30am 5.8 1.0 5.7 99 0.0 SSE 20 39 11 21 - - 1.0
22/06:00am 5.8 2.0 5.7 99 0.0 SSE 15 32 8 17 - - 1.0
22/05:30am 5.8 1.0 5.7 99 0.0 SSE 20 32 11 17 - - 1.0
22/05:00am 6.0 1.5 5.9 99 0.0 SSE 19 30 10 16 - - 0.8
22/04:30am 6.1 1.6 6.0 99 0.0 SSE 19 30 10 16 - - 0.8
22/04:00am 6.0 1.8 5.9 99 0.0 SSE 17 26 9 14 - - 0.6
22/03:30am 6.0 1.3 5.9 99 0.0 SSE 20 35 11 19 - - 0.6
22/03:00am 6.0 1.5 5.9 99 0.0 SSE 19 32 10 17 - - 0.6
22/02:30am 6.0 1.3 5.9 99 0.0 SSE 20 37 11 20 - - 0.6
22/02:00am 5.9 1.7 5.8 99 0.0 SE 17 37 9 20 - - 0.4
22/01:30am 6.0 1.3 5.9 99 0.0 SE 20 32 11 17 - - 0.4
22/01:00am 5.9 0.4 5.8 99 0.0 SE 24 43 13 23 - - 0.4
22/12:30am 5.8 0.6 5.7 99 0.0 SSE 22 43 12 23 - - 0.2
22/12:00am 5.7 1.1 5.6 99 0.0 SSE 19 33 10 18 - - 0.2
 
Date/Time
EST
Temp
°C
App
Temp
°C
Dew
Point
Rel
Hum
%
Delta-T
°C
Wind Press
QNH
hPa
Press
MSL
hPa
Rain
since 9 am
mm
Dir
 
Spd
km/h
Gust
km/h
Spd
kts
Gust
kts
21/11:30pm 5.6 1.4 5.5 99 0.0 S 17 37 9 20 - - 0.2
21/11:00pm 5.5 0.9 5.4 99 0.0 SSE 19 35 10 19 - - 0.2
21/10:32pm 5.6 -0.7 5.5 99 0.0 S 28 46 15 25 - - 0.2
21/10:30pm 5.7 -0.2 5.6 99 0.0 S 26 46 14 25 - - 0.2
21/10:00pm 5.4 -0.2 5.3 99 0.0 S 24 43 13 23 - - 0.2
21/09:30pm 5.2 0.3 4.9 98 0.1 S 20 35 11 19 - - 0.2
21/09:00pm 5.1 -0.3 4.7 97 0.2 S 22 39 12 21 - - 0.2
21/08:30pm 5.1 0.0 4.2 94 0.4 S 20 43 11 23 - - 0.2
21/08:00pm 5.2 -0.2 4.3 94 0.4 S 22 43 12 23 - - 0.2
21/07:30pm 5.2 -1.3 4.6 96 0.3 S 28 41 15 22 - - 0.2
21/07:00pm 5.2 0.3 4.9 98 0.1 S 20 37 11 20 - - 0.2
21/06:30pm 5.3 -1.1 5.0 98 0.1 S 28 44 15 24 - - 0.2
21/06:00pm 5.4 -0.3 4.8 96 0.3 S 24 37 13 20 - - 0.2

Other Formats:

Comma delimited format used in spreadsheet applications
http://www.bom.gov.au/fwo/IDV60801/IDV60801.94835.axf

JavaScript Object Notation format (JSON) in row-major order
http://www.bom.gov.au/fwo/IDV60801/IDV60801.94835.json